Terminal Aerodrome Forecast
Issued by NWS

Home | Current Version | Previous Version | Text Only | Print | Product List | Glossary On
Versions: 1 2 3 4 5 6 7 8 9 10 11 12 13 14 15 16 17 18 19 20 21
000
FTUS44 KBMX 211800 AAA
TAFEET
TAF AMD
KEET 211852Z 2119/2218 VRB04KT 6SM BR OVC010
     FM212000 12006KT 6SM BR OVC015
     FM220200 13006KT P6SM OVC012
     FM220700 13005KT 5SM BR OVC005=

USA.gov is the U.S. government's official web portal to all federal, state and local government web resources and services.